sensor_id;sensor_type;location;lat;lon;timestamp;P1;durP1;ratioP1;P2;durP2;ratioP2
60472;SDS011;46318;52.716;6.444;2023-02-28T00:01:17;5.75;;;3.83;;
60472;SDS011;46318;52.716;6.444;2023-02-28T00:03:43;5.85;;;4.22;;
60472;SDS011;46318;52.716;6.444;2023-02-28T00:06:09;7.72;;;4.10;;
60472;SDS011;46318;52.716;6.444;2023-02-28T00:08:36;7.20;;;4.38;;
60472;SDS011;46318;52.716;6.444;2023-02-28T00:11:03;8.60;;;4.05;;
60472;SDS011;46318;52.716;6.444;2023-02-28T00:13:36;6.80;;;4.00;;
60472;SDS011;46318;52.716;6.444;2023-02-28T00:16:08;9.93;;;3.90;;
60472;SDS011;46318;52.716;6.444;2023-02-28T00:18:46;6.75;;;3.80;;
60472;SDS011;46318;52.716;6.444;2023-02-28T00:21:12;9.23;;;4.43;;
60472;SDS011;46318;52.716;6.444;2023-02-28T00:23:40;6.13;;;3.97;;
60472;SDS011;46318;52.716;6.444;2023-02-28T00:26:06;10.63;;;5.05;;
60472;SDS011;46318;52.716;6.444;2023-02-28T00:28:32;11.20;;;4.63;;
60472;SDS011;46318;52.716;6.444;2023-02-28T00:30:57;9.40;;;4.63;;
60472;SDS011;46318;52.716;6.444;2023-02-28T00:33:25;8.35;;;5.30;;
60472;SDS011;46318;52.716;6.444;2023-02-28T00:35:52;7.72;;;4.45;;
60472;SDS011;46318;52.716;6.444;2023-02-28T00:38:26;7.38;;;4.93;;
60472;SDS011;46318;52.716;6.444;2023-02-28T00:40:52;10.13;;;5.05;;
60472;SDS011;46318;52.716;6.444;2023-02-28T00:43:18;6.55;;;4.38;;
60472;SDS011;46318;52.716;6.444;2023-02-28T00:45:44;8.77;;;5.13;;
60472;SDS011;46318;52.716;6.444;2023-02-28T00:48:10;10.02;;;5.13;;
60472;SDS011;46318;52.716;6.444;2023-02-28T00:50:35;7.75;;;4.68;;
60472;SDS011;46318;52.716;6.444;2023-02-28T00:53:01;8.57;;;5.00;;
60472;SDS011;46318;52.716;6.444;2023-02-28T00:55:27;6.05;;;4.15;;
60472;SDS011;46318;52.716;6.444;2023-02-28T00:57:53;9.70;;;4.65;;
60472;SDS011;46318;52.716;6.444;2023-02-28T01:00:19;9.82;;;4.75;;
60472;SDS011;46318;52.716;6.444;2023-02-28T01:02:45;6.38;;;4.38;;
60472;SDS011;46318;52.716;6.444;2023-02-28T01:05:10;8.98;;;4.85;;
60472;SDS011;46318;52.716;6.444;2023-02-28T01:07:36;5.53;;;4.20;;
60472;SDS011;46318;52.716;6.444;2023-02-28T01:10:03;7.20;;;4.32;;
60472;SDS011;46318;52.716;6.444;2023-02-28T01:12:29;9.25;;;5.47;;
60472;SDS011;46318;52.716;6.444;2023-02-28T01:14:55;8.68;;;4.88;;
60472;SDS011;46318;52.716;6.444;2023-02-28T01:17:21;11.18;;;4.90;;
60472;SDS011;46318;52.716;6.444;2023-02-28T01:19:47;9.27;;;4.65;;
60472;SDS011;46318;52.716;6.444;2023-02-28T01:22:13;8.98;;;4.90;;
60472;SDS011;46318;52.716;6.444;2023-02-28T01:24:38;6.72;;;4.40;;
60472;SDS011;46318;52.716;6.444;2023-02-28T01:27:04;9.18;;;4.60;;
60472;SDS011;46318;52.716;6.444;2023-02-28T01:29:30;8.77;;;4.85;;
60472;SDS011;46318;52.716;6.444;2023-02-28T01:31:56;7.53;;;4.93;;
60472;SDS011;46318;52.716;6.444;2023-02-28T01:34:24;8.80;;;4.80;;
60472;SDS011;46318;52.716;6.444;2023-02-28T01:36:50;8.48;;;5.20;;
60472;SDS011;46318;52.716;6.444;2023-02-28T01:39:16;8.38;;;4.65;;
60472;SDS011;46318;52.716;6.444;2023-02-28T01:41:41;7.75;;;4.68;;
60472;SDS011;46318;52.716;6.444;2023-02-28T01:47:24;8.57;;;5.30;;
60472;SDS011;46318;52.716;6.444;2023-02-28T01:49:55;10.05;;;5.93;;
60472;SDS011;46318;52.716;6.444;2023-02-28T01:52:21;14.60;;;7.40;;
60472;SDS011;46318;52.716;6.444;2023-02-28T01:54:54;10.13;;;6.60;;
60472;SDS011;46318;52.716;6.444;2023-02-28T01:57:23;43.08;;;18.27;;
60472;SDS011;46318;52.716;6.444;2023-02-28T02:02:26;9.07;;;4.97;;
60472;SDS011;46318;52.716;6.444;2023-02-28T02:07:29;11.80;;;6.28;;
60472;SDS011;46318;52.716;6.444;2023-02-28T02:10:11;12.40;;;6.30;;
60472;SDS011;46318;52.716;6.444;2023-02-28T02:15:26;9.77;;;5.97;;
60472;SDS011;46318;52.716;6.444;2023-02-28T02:26:33;8.35;;;5.72;;
60472;SDS011;46318;52.716;6.444;2023-02-28T02:29:47;10.57;;;6.40;;
60472;SDS011;46318;52.716;6.444;2023-02-28T02:35:52;13.65;;;7.25;;
60472;SDS011;46318;52.716;6.444;2023-02-28T02:38:48;10.43;;;7.47;;
60472;SDS011;46318;52.716;6.444;2023-02-28T02:41:41;11.55;;;8.00;;
60472;SDS011;46318;52.716;6.444;2023-02-28T02:44:23;12.73;;;8.07;;
60472;SDS011;46318;52.716;6.444;2023-02-28T02:47:06;13.15;;;8.57;;
60472;SDS011;46318;52.716;6.444;2023-02-28T02:49:37;14.82;;;8.10;;
60472;SDS011;46318;52.716;6.444;2023-02-28T02:52:08;15.10;;;9.35;;
60472;SDS011;46318;52.716;6.444;2023-02-28T02:54:38;14.40;;;9.77;;
60472;SDS011;46318;52.716;6.444;2023-02-28T02:57:11;16.70;;;11.00;;
60472;SDS011;46318;52.716;6.444;2023-02-28T02:59:46;13.43;;;10.32;;
60472;SDS011;46318;52.716;6.444;2023-02-28T03:02:14;14.18;;;10.52;;
60472;SDS011;46318;52.716;6.444;2023-02-28T03:04:43;23.17;;;11.25;;
60472;SDS011;46318;52.716;6.444;2023-02-28T03:07:15;22.73;;;12.13;;
60472;SDS011;46318;52.716;6.444;2023-02-28T03:09:49;18.20;;;11.38;;
60472;SDS011;46318;52.716;6.444;2023-02-28T03:12:45;16.63;;;11.07;;
60472;SDS011;46318;52.716;6.444;2023-02-28T03:15:23;15.10;;;10.23;;
60472;SDS011;46318;52.716;6.444;2023-02-28T03:18:06;18.55;;;11.63;;
60472;SDS011;46318;52.716;6.444;2023-02-28T03:20:48;17.30;;;11.43;;
60472;SDS011;46318;52.716;6.444;2023-02-28T03:26:23;18.80;;;11.07;;
60472;SDS011;46318;52.716;6.444;2023-02-28T03:29:02;20.83;;;11.80;;
60472;SDS011;46318;52.716;6.444;2023-02-28T03:31:54;17.00;;;10.40;;
60472;SDS011;46318;52.716;6.444;2023-02-28T03:37:05;18.58;;;11.73;;
60472;SDS011;46318;52.716;6.444;2023-02-28T03:39:37;15.60;;;11.75;;
60472;SDS011;46318;52.716;6.444;2023-02-28T03:42:10;15.73;;;11.20;;
60472;SDS011;46318;52.716;6.444;2023-02-28T03:44:42;17.88;;;11.48;;
60472;SDS011;46318;52.716;6.444;2023-02-28T03:47:24;18.55;;;11.45;;
60472;SDS011;46318;52.716;6.444;2023-02-28T03:50:47;17.08;;;11.25;;
60472;SDS011;46318;52.716;6.444;2023-02-28T03:55:50;19.00;;;12.90;;
60472;SDS011;46318;52.716;6.444;2023-02-28T03:58:27;17.38;;;11.85;;
60472;SDS011;46318;52.716;6.444;2023-02-28T04:01:36;19.08;;;11.48;;
60472;SDS011;46318;52.716;6.444;2023-02-28T04:04:07;18.98;;;13.57;;
60472;SDS011;46318;52.716;6.444;2023-02-28T04:06:34;21.75;;;13.07;;
60472;SDS011;46318;52.716;6.444;2023-02-28T04:09:01;18.60;;;12.05;;
60472;SDS011;46318;52.716;6.444;2023-02-28T04:11:36;18.23;;;11.48;;
60472;SDS011;46318;52.716;6.444;2023-02-28T04:14:11;34.97;;;14.07;;
60472;SDS011;46318;52.716;6.444;2023-02-28T04:16:38;19.23;;;12.88;;
60472;SDS011;46318;52.716;6.444;2023-02-28T04:19:07;19.33;;;13.85;;
60472;SDS011;46318;52.716;6.444;2023-02-28T04:21:35;20.02;;;12.73;;
60472;SDS011;46318;52.716;6.444;2023-02-28T04:24:05;17.88;;;11.93;;
60472;SDS011;46318;52.716;6.444;2023-02-28T04:26:39;19.38;;;12.30;;
60472;SDS011;46318;52.716;6.444;2023-02-28T04:29:09;21.52;;;12.48;;
60472;SDS011;46318;52.716;6.444;2023-02-28T04:31:37;18.77;;;12.38;;
60472;SDS011;46318;52.716;6.444;2023-02-28T04:34:03;23.88;;;13.50;;
60472;SDS011;46318;52.716;6.444;2023-02-28T04:36:29;19.02;;;12.05;;
60472;SDS011;46318;52.716;6.444;2023-02-28T04:38:55;23.15;;;13.85;;
60472;SDS011;46318;52.716;6.444;2023-02-28T04:41:22;21.30;;;14.05;;
60472;SDS011;46318;52.716;6.444;2023-02-28T04:43:48;18.77;;;13.00;;
60472;SDS011;46318;52.716;6.444;2023-02-28T04:46:14;19.98;;;12.95;;
60472;SDS011;46318;52.716;6.444;2023-02-28T04:48:40;21.27;;;13.82;;
60472;SDS011;46318;52.716;6.444;2023-02-28T04:51:07;18.02;;;12.32;;
60472;SDS011;46318;52.716;6.444;2023-02-28T04:53:36;20.58;;;12.68;;
60472;SDS011;46318;52.716;6.444;2023-02-28T04:56:04;24.80;;;14.93;;
60472;SDS011;46318;52.716;6.444;2023-02-28T04:58:32;31.45;;;14.80;;
60472;SDS011;46318;52.716;6.444;2023-02-28T05:01:02;23.05;;;14.35;;
60472;SDS011;46318;52.716;6.444;2023-02-28T05:03:52;20.70;;;13.20;;
60472;SDS011;46318;52.716;6.444;2023-02-28T05:06:20;19.63;;;13.70;;
60472;SDS011;46318;52.716;6.444;2023-02-28T05:08:48;20.10;;;14.00;;
60472;SDS011;46318;52.716;6.444;2023-02-28T05:11:19;24.77;;;14.40;;
60472;SDS011;46318;52.716;6.444;2023-02-28T05:14:04;20.25;;;13.57;;
60472;SDS011;46318;52.716;6.444;2023-02-28T05:16:35;18.70;;;13.25;;
60472;SDS011;46318;52.716;6.444;2023-02-28T05:19:02;22.75;;;15.00;;
60472;SDS011;46318;52.716;6.444;2023-02-28T05:21:29;24.52;;;16.02;;
60472;SDS011;46318;52.716;6.444;2023-02-28T05:24:00;134.05;;;82.85;;
60472;SDS011;46318;52.716;6.444;2023-02-28T05:26:29;79.35;;;41.97;;
60472;SDS011;46318;52.716;6.444;2023-02-28T05:28:58;113.53;;;42.45;;
60472;SDS011;46318;52.716;6.444;2023-02-28T05:31:24;45.78;;;24.00;;
60472;SDS011;46318;52.716;6.444;2023-02-28T05:33:50;22.90;;;14.52;;
60472;SDS011;46318;52.716;6.444;2023-02-28T05:36:16;92.82;;;45.30;;
60472;SDS011;46318;52.716;6.444;2023-02-28T05:38:42;103.30;;;49.33;;
60472;SDS011;46318;52.716;6.444;2023-02-28T05:41:11;143.40;;;54.75;;
60472;SDS011;46318;52.716;6.444;2023-02-28T05:43:37;51.88;;;23.02;;
60472;SDS011;46318;52.716;6.444;2023-02-28T05:46:07;80.18;;;30.05;;
60472;SDS011;46318;52.716;6.444;2023-02-28T05:48:36;131.57;;;44.90;;
60472;SDS011;46318;52.716;6.444;2023-02-28T05:51:03;39.75;;;19.92;;
60472;SDS011;46318;52.716;6.444;2023-02-28T05:53:30;20.20;;;12.63;;
60472;SDS011;46318;52.716;6.444;2023-02-28T05:55:57;18.25;;;12.27;;
60472;SDS011;46318;52.716;6.444;2023-02-28T05:58:23;18.33;;;13.70;;
60472;SDS011;46318;52.716;6.444;2023-02-28T06:00:56;66.40;;;29.50;;
60472;SDS011;46318;52.716;6.444;2023-02-28T06:03:23;37.30;;;19.00;;
60472;SDS011;46318;52.716;6.444;2023-02-28T06:05:49;22.17;;;14.25;;
60472;SDS011;46318;52.716;6.444;2023-02-28T06:08:15;26.85;;;14.95;;
60472;SDS011;46318;52.716;6.444;2023-02-28T06:10:41;15.98;;;12.20;;
60472;SDS011;46318;52.716;6.444;2023-02-28T06:13:07;83.65;;;34.90;;
60472;SDS011;46318;52.716;6.444;2023-02-28T06:15:33;37.33;;;20.77;;
60472;SDS011;46318;52.716;6.444;2023-02-28T06:17:59;20.75;;;13.52;;
60472;SDS011;46318;52.716;6.444;2023-02-28T06:20:26;20.35;;;13.30;;
60472;SDS011;46318;52.716;6.444;2023-02-28T06:22:56;20.52;;;13.07;;
60472;SDS011;46318;52.716;6.444;2023-02-28T06:25:24;19.08;;;12.95;;
60472;SDS011;46318;52.716;6.444;2023-02-28T06:27:51;19.92;;;12.88;;
60472;SDS011;46318;52.716;6.444;2023-02-28T06:30:18;20.27;;;12.40;;
60472;SDS011;46318;52.716;6.444;2023-02-28T06:32:48;20.02;;;13.25;;
60472;SDS011;46318;52.716;6.444;2023-02-28T06:35:14;18.38;;;12.90;;
60472;SDS011;46318;52.716;6.444;2023-02-28T06:37:40;19.60;;;12.90;;
60472;SDS011;46318;52.716;6.444;2023-02-28T06:40:09;18.98;;;12.60;;
60472;SDS011;46318;52.716;6.444;2023-02-28T06:42:38;18.10;;;13.27;;
60472;SDS011;46318;52.716;6.444;2023-02-28T06:45:04;18.88;;;12.80;;
60472;SDS011;46318;52.716;6.444;2023-02-28T06:47:34;17.02;;;12.43;;
60472;SDS011;46318;52.716;6.444;2023-02-28T06:50:01;18.58;;;13.52;;
60472;SDS011;46318;52.716;6.444;2023-02-28T06:52:28;24.83;;;13.38;;
60472;SDS011;46318;52.716;6.444;2023-02-28T06:54:54;22.83;;;13.75;;
60472;SDS011;46318;52.716;6.444;2023-02-28T06:57:31;22.42;;;13.45;;
60472;SDS011;46318;52.716;6.444;2023-02-28T06:59:59;18.42;;;13.30;;
60472;SDS011;46318;52.716;6.444;2023-02-28T07:02:28;21.35;;;14.27;;
60472;SDS011;46318;52.716;6.444;2023-02-28T07:04:54;20.13;;;13.60;;
60472;SDS011;46318;52.716;6.444;2023-02-28T07:07:20;24.40;;;15.05;;
60472;SDS011;46318;52.716;6.444;2023-02-28T07:09:46;28.27;;;14.63;;
60472;SDS011;46318;52.716;6.444;2023-02-28T07:12:12;18.83;;;14.43;;
60472;SDS011;46318;52.716;6.444;2023-02-28T07:14:38;18.50;;;13.38;;
60472;SDS011;46318;52.716;6.444;2023-02-28T07:17:03;19.80;;;13.90;;
60472;SDS011;46318;52.716;6.444;2023-02-28T07:19:32;21.25;;;14.02;;
60472;SDS011;46318;52.716;6.444;2023-02-28T07:21:58;20.05;;;14.25;;
60472;SDS011;46318;52.716;6.444;2023-02-28T07:24:24;20.35;;;13.05;;
60472;SDS011;46318;52.716;6.444;2023-02-28T07:26:53;18.60;;;13.23;;
60472;SDS011;46318;52.716;6.444;2023-02-28T07:29:19;19.85;;;13.75;;
60472;SDS011;46318;52.716;6.444;2023-02-28T07:31:45;23.27;;;14.70;;
60472;SDS011;46318;52.716;6.444;2023-02-28T07:34:11;21.27;;;14.32;;
60472;SDS011;46318;52.716;6.444;2023-02-28T07:36:38;19.67;;;14.32;;
60472;SDS011;46318;52.716;6.444;2023-02-28T07:39:05;19.52;;;12.75;;
60472;SDS011;46318;52.716;6.444;2023-02-28T07:41:31;19.65;;;13.75;;
60472;SDS011;46318;52.716;6.444;2023-02-28T07:43:59;17.65;;;13.70;;
60472;SDS011;46318;52.716;6.444;2023-02-28T07:46:25;19.98;;;14.02;;
60472;SDS011;46318;52.716;6.444;2023-02-28T07:48:51;18.63;;;13.30;;
60472;SDS011;46318;52.716;6.444;2023-02-28T07:51:19;20.17;;;14.00;;
60472;SDS011;46318;52.716;6.444;2023-02-28T07:53:45;18.58;;;12.80;;
60472;SDS011;46318;52.716;6.444;2023-02-28T07:56:11;18.08;;;13.85;;
60472;SDS011;46318;52.716;6.444;2023-02-28T07:58:37;19.00;;;13.88;;
60472;SDS011;46318;52.716;6.444;2023-02-28T08:01:07;17.08;;;13.75;;
60472;SDS011;46318;52.716;6.444;2023-02-28T08:03:35;19.98;;;12.40;;
60472;SDS011;46318;52.716;6.444;2023-02-28T08:06:03;18.75;;;13.07;;
60472;SDS011;46318;52.716;6.444;2023-02-28T08:08:30;17.60;;;13.57;;
60472;SDS011;46318;52.716;6.444;2023-02-28T08:11:00;20.83;;;12.60;;
60472;SDS011;46318;52.716;6.444;2023-02-28T08:13:28;16.38;;;11.77;;
60472;SDS011;46318;52.716;6.444;2023-02-28T08:15:55;12.75;;;10.45;;
60472;SDS011;46318;52.716;6.444;2023-02-28T08:18:21;12.93;;;10.85;;
60472;SDS011;46318;52.716;6.444;2023-02-28T08:20:48;15.00;;;11.18;;
60472;SDS011;46318;52.716;6.444;2023-02-28T08:23:14;17.02;;;11.02;;
60472;SDS011;46318;52.716;6.444;2023-02-28T08:25:40;14.35;;;10.98;;
60472;SDS011;46318;52.716;6.444;2023-02-28T08:28:06;15.10;;;11.48;;
60472;SDS011;46318;52.716;6.444;2023-02-28T08:30:32;14.20;;;11.20;;
60472;SDS011;46318;52.716;6.444;2023-02-28T08:32:57;17.88;;;11.93;;
60472;SDS011;46318;52.716;6.444;2023-02-28T08:35:23;15.40;;;11.43;;
60472;SDS011;46318;52.716;6.444;2023-02-28T08:37:49;16.17;;;13.35;;
60472;SDS011;46318;52.716;6.444;2023-02-28T08:40:16;16.58;;;12.18;;
60472;SDS011;46318;52.716;6.444;2023-02-28T08:42:47;16.70;;;12.23;;
60472;SDS011;46318;52.716;6.444;2023-02-28T08:45:14;14.63;;;11.65;;
60472;SDS011;46318;52.716;6.444;2023-02-28T08:47:40;18.27;;;11.50;;
60472;SDS011;46318;52.716;6.444;2023-02-28T08:50:07;17.20;;;11.75;;
60472;SDS011;46318;52.716;6.444;2023-02-28T08:52:34;13.13;;;11.20;;
60472;SDS011;46318;52.716;6.444;2023-02-28T08:55:00;17.38;;;11.55;;
60472;SDS011;46318;52.716;6.444;2023-02-28T08:57:26;14.43;;;10.65;;
60472;SDS011;46318;52.716;6.444;2023-02-28T08:59:52;12.65;;;10.43;;
60472;SDS011;46318;52.716;6.444;2023-02-28T09:02:18;11.77;;;9.15;;
60472;SDS011;46318;52.716;6.444;2023-02-28T09:04:44;12.10;;;9.10;;
60472;SDS011;46318;52.716;6.444;2023-02-28T09:07:10;14.93;;;9.75;;
60472;SDS011;46318;52.716;6.444;2023-02-28T09:09:37;11.57;;;8.75;;
60472;SDS011;46318;52.716;6.444;2023-02-28T09:12:25;13.15;;;7.68;;
60472;SDS011;46318;52.716;6.444;2023-02-28T09:14:53;45.75;;;22.58;;
60472;SDS011;46318;52.716;6.444;2023-02-28T09:17:19;47.22;;;22.60;;
60472;SDS011;46318;52.716;6.444;2023-02-28T09:19:47;61.13;;;27.27;;
60472;SDS011;46318;52.716;6.444;2023-02-28T09:22:14;39.65;;;16.92;;
60472;SDS011;46318;52.716;6.444;2023-02-28T09:24:40;77.63;;;30.02;;
60472;SDS011;46318;52.716;6.444;2023-02-28T09:27:06;94.72;;;34.33;;
60472;SDS011;46318;52.716;6.444;2023-02-28T09:29:32;38.80;;;16.67;;
60472;SDS011;46318;52.716;6.444;2023-02-28T09:31:59;168.15;;;56.30;;
60472;SDS011;46318;52.716;6.444;2023-02-28T09:34:26;68.65;;;27.60;;
60472;SDS011;46318;52.716;6.444;2023-02-28T09:36:54;24.13;;;15.90;;
60472;SDS011;46318;52.716;6.444;2023-02-28T09:39:21;12.70;;;9.63;;
60472;SDS011;46318;52.716;6.444;2023-02-28T09:41:48;28.88;;;20.75;;
60472;SDS011;46318;52.716;6.444;2023-02-28T09:44:26;10.00;;;7.93;;
60472;SDS011;46318;52.716;6.444;2023-02-28T09:49:49;52.17;;;25.13;;
60472;SDS011;46318;52.716;6.444;2023-02-28T09:52:20;24.90;;;13.52;;
60472;SDS011;46318;52.716;6.444;2023-02-28T09:54:53;7.32;;;4.63;;
60472;SDS011;46318;52.716;6.444;2023-02-28T09:57:33;106.03;;;46.10;;
60472;SDS011;46318;52.716;6.444;2023-02-28T10:00:17;17.50;;;8.85;;
60472;SDS011;46318;52.716;6.444;2023-02-28T10:03:06;11.25;;;6.22;;
60472;SDS011;46318;52.716;6.444;2023-02-28T10:05:50;3.20;;;2.38;;
60472;SDS011;46318;52.716;6.444;2023-02-28T10:08:30;4.18;;;3.00;;
60472;SDS011;46318;52.716;6.444;2023-02-28T10:11:28;33.53;;;16.70;;
60472;SDS011;46318;52.716;6.444;2023-02-28T10:25:43;6.63;;;4.50;;
60472;SDS011;46318;52.716;6.444;2023-02-28T10:28:16;18.60;;;13.00;;
60472;SDS011;46318;52.716;6.444;2023-02-28T10:30:46;5.55;;;3.50;;
60472;SDS011;46318;52.716;6.444;2023-02-28T10:33:17;3.70;;;3.00;;
60472;SDS011;46318;52.716;6.444;2023-02-28T10:36:02;7.75;;;3.78;;
60472;SDS011;46318;52.716;6.444;2023-02-28T10:41:04;4.32;;;3.70;;
60472;SDS011;46318;52.716;6.444;2023-02-28T10:43:40;7.53;;;4.47;;
60472;SDS011;46318;52.716;6.444;2023-02-28T10:48:57;11.45;;;7.97;;
60472;SDS011;46318;52.716;6.444;2023-02-28T10:51:34;5.87;;;4.40;;
60472;SDS011;46318;52.716;6.444;2023-02-28T10:54:04;31.02;;;22.08;;
60472;SDS011;46318;52.716;6.444;2023-02-28T10:56:31;18.17;;;12.05;;
60472;SDS011;46318;52.716;6.444;2023-02-28T11:01:53;4.20;;;3.90;;
60472;SDS011;46318;52.716;6.444;2023-02-28T11:04:23;4.68;;;4.10;;
60472;SDS011;46318;52.716;6.444;2023-02-28T11:07:06;5.93;;;3.75;;
60472;SDS011;46318;52.716;6.444;2023-02-28T11:09:54;4.80;;;3.88;;
60472;SDS011;46318;52.716;6.444;2023-02-28T11:12:23;5.95;;;4.20;;
60472;SDS011;46318;52.716;6.444;2023-02-28T11:15:04;5.85;;;5.25;;
60472;SDS011;46318;52.716;6.444;2023-02-28T11:17:59;6.70;;;5.90;;
60472;SDS011;46318;52.716;6.444;2023-02-28T11:20:32;3.50;;;2.83;;
60472;SDS011;46318;52.716;6.444;2023-02-28T11:23:00;3.08;;;2.78;;
60472;SDS011;46318;52.716;6.444;2023-02-28T11:25:30;5.10;;;3.35;;
60472;SDS011;46318;52.716;6.444;2023-02-28T11:28:00;3.33;;;2.55;;
60472;SDS011;46318;52.716;6.444;2023-02-28T11:30:37;3.17;;;2.75;;
60472;SDS011;46318;52.716;6.444;2023-02-28T11:33:26;29.67;;;18.85;;
60472;SDS011;46318;52.716;6.444;2023-02-28T11:36:04;4.28;;;3.50;;
60472;SDS011;46318;52.716;6.444;2023-02-28T11:38:38;3.35;;;2.15;;
60472;SDS011;46318;52.716;6.444;2023-02-28T11:41:09;5.60;;;3.88;;
60472;SDS011;46318;52.716;6.444;2023-02-28T11:44:00;5.28;;;2.15;;
60472;SDS011;46318;52.716;6.444;2023-02-28T11:52:56;2.45;;;2.13;;
60472;SDS011;46318;52.716;6.444;2023-02-28T11:55:27;3.40;;;2.55;;
60472;SDS011;46318;52.716;6.444;2023-02-28T11:58:05;4.28;;;2.03;;
60472;SDS011;46318;52.716;6.444;2023-02-28T12:12:41;2.60;;;2.35;;
60472;SDS011;46318;52.716;6.444;2023-02-28T12:15:41;2.80;;;2.40;;
60472;SDS011;46318;52.716;6.444;2023-02-28T12:22:04;4.07;;;2.60;;
60472;SDS011;46318;52.716;6.444;2023-02-28T12:27:37;3.05;;;2.42;;
60472;SDS011;46318;52.716;6.444;2023-02-28T12:30:14;4.03;;;2.67;;
60472;SDS011;46318;52.716;6.444;2023-02-28T12:32:52;2.53;;;2.33;;
60472;SDS011;46318;52.716;6.444;2023-02-28T12:35:47;2.40;;;2.08;;
60472;SDS011;46318;52.716;6.444;2023-02-28T12:38:31;4.97;;;2.40;;
60472;SDS011;46318;52.716;6.444;2023-02-28T12:41:04;2.30;;;2.10;;
60472;SDS011;46318;52.716;6.444;2023-02-28T12:43:46;2.50;;;2.30;;
60472;SDS011;46318;52.716;6.444;2023-02-28T12:46:58;3.53;;;2.10;;
60472;SDS011;46318;52.716;6.444;2023-02-28T12:49:33;2.72;;;2.22;;
60472;SDS011;46318;52.716;6.444;2023-02-28T12:52:06;2.40;;;2.20;;
60472;SDS011;46318;52.716;6.444;2023-02-28T12:54:39;2.60;;;2.40;;
60472;SDS011;46318;52.716;6.444;2023-02-28T13:00:20;3.58;;;2.42;;
60472;SDS011;46318;52.716;6.444;2023-02-28T13:05:55;3.10;;;2.38;;
60472;SDS011;46318;52.716;6.444;2023-02-28T13:11:49;2.58;;;2.35;;
60472;SDS011;46318;52.716;6.444;2023-02-28T13:19:41;2.53;;;2.20;;
60472;SDS011;46318;52.716;6.444;2023-02-28T13:24:56;3.05;;;2.53;;
60472;SDS011;46318;52.716;6.444;2023-02-28T13:29:52;2.97;;;2.50;;
60472;SDS011;46318;52.716;6.444;2023-02-28T13:32:19;3.97;;;2.50;;
60472;SDS011;46318;52.716;6.444;2023-02-28T13:47:52;3.38;;;2.95;;
60472;SDS011;46318;52.716;6.444;2023-02-28T14:01:45;4.53;;;3.45;;
60472;SDS011;46318;52.716;6.444;2023-02-28T14:07:16;3.75;;;2.90;;
60472;SDS011;46318;52.716;6.444;2023-02-28T14:10:06;3.13;;;2.83;;
60472;SDS011;46318;52.716;6.444;2023-02-28T14:12:58;3.90;;;3.03;;
60472;SDS011;46318;52.716;6.444;2023-02-28T14:18:28;3.70;;;3.22;;
60472;SDS011;46318;52.716;6.444;2023-02-28T14:21:08;3.35;;;3.05;;
60472;SDS011;46318;52.716;6.444;2023-02-28T14:29:43;4.05;;;2.85;;
60472;SDS011;46318;52.716;6.444;2023-02-28T14:38:04;5.15;;;3.70;;
60472;SDS011;46318;52.716;6.444;2023-02-28T14:40:33;12.93;;;9.88;;
60472;SDS011;46318;52.716;6.444;2023-02-28T14:43:01;8.82;;;6.53;;
60472;SDS011;46318;52.716;6.444;2023-02-28T14:45:30;7.78;;;5.47;;
60472;SDS011;46318;52.716;6.444;2023-02-28T14:47:59;6.35;;;4.75;;
60472;SDS011;46318;52.716;6.444;2023-02-28T14:50:31;3.40;;;3.10;;
60472;SDS011;46318;52.716;6.444;2023-02-28T14:53:01;3.78;;;3.45;;
60472;SDS011;46318;52.716;6.444;2023-02-28T14:55:28;4.43;;;3.45;;
60472;SDS011;46318;52.716;6.444;2023-02-28T14:57:58;5.55;;;3.65;;
60472;SDS011;46318;52.716;6.444;2023-02-28T15:00:33;5.32;;;4.50;;
60472;SDS011;46318;52.716;6.444;2023-02-28T15:03:17;4.25;;;3.78;;
60472;SDS011;46318;52.716;6.444;2023-02-28T15:08:22;4.20;;;3.80;;
60472;SDS011;46318;52.716;6.444;2023-02-28T15:10:56;4.90;;;3.85;;
60472;SDS011;46318;52.716;6.444;2023-02-28T15:13:47;3.30;;;3.00;;
60472;SDS011;46318;52.716;6.444;2023-02-28T15:16:20;3.55;;;3.25;;
60472;SDS011;46318;52.716;6.444;2023-02-28T15:18:56;3.83;;;3.53;;
60472;SDS011;46318;52.716;6.444;2023-02-28T15:21:39;5.10;;;3.58;;
60472;SDS011;46318;52.716;6.444;2023-02-28T15:24:30;3.70;;;3.40;;
60472;SDS011;46318;52.716;6.444;2023-02-28T15:27:28;5.03;;;3.92;;
60472;SDS011;46318;52.716;6.444;2023-02-28T15:29:58;4.80;;;3.50;;
60472;SDS011;46318;52.716;6.444;2023-02-28T15:32:31;4.13;;;3.72;;
60472;SDS011;46318;52.716;6.444;2023-02-28T15:37:57;4.00;;;3.47;;
60472;SDS011;46318;52.716;6.444;2023-02-28T15:43:25;3.92;;;3.63;;
60472;SDS011;46318;52.716;6.444;2023-02-28T15:45:52;4.28;;;3.10;;
60472;SDS011;46318;52.716;6.444;2023-02-28T15:50:58;3.45;;;3.15;;
60472;SDS011;46318;52.716;6.444;2023-02-28T15:57:13;4.07;;;3.78;;
60472;SDS011;46318;52.716;6.444;2023-02-28T15:59:25;5.07;;;3.78;;
60472;SDS011;46318;52.716;6.444;2023-02-28T16:02:08;4.18;;;3.67;;
60472;SDS011;46318;52.716;6.444;2023-02-28T16:04:59;4.47;;;4.03;;
60472;SDS011;46318;52.716;6.444;2023-02-28T16:07:33;4.60;;;3.53;;
60472;SDS011;46318;52.716;6.444;2023-02-28T16:10:02;4.45;;;3.95;;
60472;SDS011;46318;52.716;6.444;2023-02-28T16:12:30;5.35;;;4.82;;
60472;SDS011;46318;52.716;6.444;2023-02-28T16:15:23;7.47;;;5.88;;
60472;SDS011;46318;52.716;6.444;2023-02-28T16:17:47;8.95;;;6.03;;
60472;SDS011;46318;52.716;6.444;2023-02-28T16:20:15;6.85;;;5.90;;
60472;SDS011;46318;52.716;6.444;2023-02-28T16:25:15;9.02;;;6.93;;
60472;SDS011;46318;52.716;6.444;2023-02-28T16:27:46;10.90;;;8.23;;
60472;SDS011;46318;52.716;6.444;2023-02-28T16:30:18;7.90;;;6.95;;
60472;SDS011;46318;52.716;6.444;2023-02-28T16:32:49;6.72;;;5.32;;
60472;SDS011;46318;52.716;6.444;2023-02-28T16:35:21;5.45;;;4.95;;
60472;SDS011;46318;52.716;6.444;2023-02-28T16:37:48;5.65;;;5.13;;
60472;SDS011;46318;52.716;6.444;2023-02-28T16:40:19;7.80;;;5.45;;
60472;SDS011;46318;52.716;6.444;2023-02-28T16:42:51;5.78;;;5.10;;
60472;SDS011;46318;52.716;6.444;2023-02-28T16:45:24;6.90;;;4.80;;
60472;SDS011;46318;52.716;6.444;2023-02-28T16:47:52;6.43;;;5.22;;
60472;SDS011;46318;52.716;6.444;2023-02-28T16:50:29;5.80;;;5.22;;
60472;SDS011;46318;52.716;6.444;2023-02-28T16:52:57;5.93;;;5.22;;
60472;SDS011;46318;52.716;6.444;2023-02-28T16:55:23;5.75;;;5.20;;
60472;SDS011;46318;52.716;6.444;2023-02-28T16:57:54;6.07;;;5.47;;
60472;SDS011;46318;52.716;6.444;2023-02-28T17:00:23;5.95;;;5.35;;
60472;SDS011;46318;52.716;6.444;2023-02-28T17:02:50;6.07;;;5.55;;
60472;SDS011;46318;52.716;6.444;2023-02-28T17:05:17;7.03;;;5.50;;
60472;SDS011;46318;52.716;6.444;2023-02-28T17:07:44;5.85;;;5.28;;
60472;SDS011;46318;52.716;6.444;2023-02-28T17:10:16;5.72;;;5.22;;
60472;SDS011;46318;52.716;6.444;2023-02-28T17:12:48;5.97;;;5.38;;
60472;SDS011;46318;52.716;6.444;2023-02-28T17:15:14;6.53;;;5.28;;
60472;SDS011;46318;52.716;6.444;2023-02-28T17:17:43;6.53;;;5.50;;
60472;SDS011;46318;52.716;6.444;2023-02-28T17:20:12;8.45;;;5.70;;
60472;SDS011;46318;52.716;6.444;2023-02-28T17:22:49;5.82;;;5.25;;
60472;SDS011;46318;52.716;6.444;2023-02-28T17:25:16;6.85;;;5.72;;
60472;SDS011;46318;52.716;6.444;2023-02-28T17:27:42;7.07;;;6.38;;
60472;SDS011;46318;52.716;6.444;2023-02-28T17:30:13;11.07;;;8.60;;
60472;SDS011;46318;52.716;6.444;2023-02-28T17:32:43;7.90;;;7.13;;
60472;SDS011;46318;52.716;6.444;2023-02-28T17:35:09;9.20;;;7.75;;
60472;SDS011;46318;52.716;6.444;2023-02-28T17:37:35;9.68;;;7.65;;